Time;durP1;ratioP1;P1;durP2;ratioP2;P2;SDS_P1;SDS_P2;PMS_P1;PMS_P2;Temp;Humidity;BMP_temperature;BMP_pressure;BME280_temperature;BME280_humidity;BME280_pressure;Samples;Min_cycle;Max_cycle;Signal;HPM_P1;HPM_P2
2021/11/08 00:01:45;;;;;;;42.85;10.10;;;7.20;98.80;;;;;;5013628;28;20389;-78
2021/11/08 00:04:11;;;;;;;33.83;9.07;;;7.30;99.30;;;;;;5018534;28;20385;-77
2021/11/08 00:06:37;;;;;;;33.70;9.35;;;7.30;98.80;;;;;;5015423;28;20397;-79
2021/11/08 00:09:04;;;;;;;45.57;10.30;;;7.30;98.10;;;;;;5014227;28;20389;-78
2021/11/08 00:11:31;;;;;;;37.00;10.15;;;7.40;98.50;;;;;;5012152;28;20401;-78
2021/11/08 00:13:57;;;;;;;43.38;10.07;;;7.50;97.60;;;;;;5032239;28;20384;-76
2021/11/08 00:21:46;;;;;;;47.45;11.32;;;7.40;96.40;;;;;;5006604;28;20470;-77
2021/11/08 00:24:14;;;;;;;27.88;10.73;;;7.40;96.50;;;;;;5013062;28;20396;-78
2021/11/08 00:26:39;;;;;;;36.05;11.70;;;7.40;96.50;;;;;;5013313;28;20393;-76
2021/11/08 00:29:05;;;;;;;34.47;11.30;;;7.40;97.10;;;;;;5013000;28;20392;-79
2021/11/08 00:31:31;;;;;;;43.08;12.05;;;7.40;96.70;;;;;;5008212;28;20408;-77
2021/11/08 00:33:58;;;;;;;38.10;11.07;;;7.40;97.00;;;;;;5013083;28;20396;-78
2021/11/08 00:36:23;;;;;;;39.47;12.23;;;7.40;97.00;;;;;;5014333;28;20393;-77
2021/11/08 00:38:50;;;;;;;42.28;11.15;;;7.40;98.30;;;;;;5016232;28;20397;-76
2021/11/08 00:41:16;;;;;;;42.65;11.55;;;7.40;97.60;;;;;;5015923;28;20376;-80
2021/11/08 00:43:42;;;;;;;38.00;13.07;;;7.30;98.70;;;;;;5013865;28;20408;-77
2021/11/08 00:46:08;;;;;;;44.10;12.47;;;7.40;99.90;;;;;;5013703;28;20817;-77
2021/11/08 00:48:36;;;;;;;38.78;12.70;;;7.40;99.90;;;;;;5013836;28;20399;-79
2021/11/08 00:51:02;;;;;;;48.10;12.70;;;7.60;99.40;;;;;;5012431;28;20439;-77
2021/11/08 00:53:28;;;;;;;39.13;12.15;;;7.60;98.60;;;;;;5012880;28;20476;-76
2021/11/08 00:55:55;;;;;;;44.92;12.50;;;7.70;97.60;;;;;;5008739;28;20491;-78
2021/11/08 00:58:28;;;;;;;39.72;13.10;;;7.70;98.40;;;;;;5009964;28;20420;-78
2021/11/08 01:00:54;;;;;;;34.10;11.40;;;7.80;96.20;;;;;;5010498;28;20399;-78
2021/11/08 01:03:22;;;;;;;38.65;12.10;;;7.80;96.70;;;;;;5009723;28;20411;-78
2021/11/08 01:05:48;;;;;;;43.83;12.73;;;7.80;95.00;;;;;;5011534;28;20390;-77
2021/11/08 01:08:15;;;;;;;40.40;12.02;;;7.70;95.00;;;;;;5012799;28;20396;-78
2021/11/08 01:10:41;;;;;;;35.13;11.48;;;7.70;93.20;;;;;;5012262;28;20383;-77
2021/11/08 01:13:06;;;;;;;42.27;11.70;;;7.60;93.40;;;;;;5025403;28;20458;-78
2021/11/08 01:15:32;;;;;;;50.33;11.47;;;7.70;93.60;;;;;;5033376;28;20430;-78
2021/11/08 01:17:58;;;;;;;36.70;11.50;;;7.60;93.00;;;;;;5032291;28;20406;-78
2021/11/08 01:20:31;;;;;;;45.03;10.60;;;7.60;94.00;;;;;;5009091;28;20398;-78
2021/11/08 01:22:57;;;;;;;39.78;10.10;;;7.70;93.60;;;;;;5012598;28;20489;-79
2021/11/08 01:25:22;;;;;;;40.20;11.63;;;7.80;94.40;;;;;;5012663;28;20413;-78
2021/11/08 01:27:53;;;;;;;40.75;11.02;;;7.90;91.00;;;;;;5013719;28;20906;-79
2021/11/08 01:30:21;;;;;;;31.40;10.70;;;7.90;90.90;;;;;;5012277;28;20408;-79
2021/11/08 01:33:24;;;;;;;48.72;11.48;;;8.00;90.30;;;;;;5013459;28;20885;-79
2021/11/08 01:35:56;;;;;;;41.97;10.80;;;8.10;88.80;;;;;;5016891;28;20439;-79
2021/11/08 01:38:25;;;;;;;33.43;10.50;;;8.10;89.20;;;;;;5020693;28;20516;-79
2021/11/08 01:40:51;;;;;;;43.92;10.77;;;8.20;86.70;;;;;;5012027;28;20403;-78
2021/11/08 01:43:17;;;;;;;35.50;10.27;;;8.20;87.10;;;;;;5012655;28;20460;-77
2021/11/08 01:45:43;;;;;;;37.88;10.23;;;8.30;84.60;;;;;;5012321;28;20404;-78
2021/11/08 01:48:11;;;;;;;33.90;10.13;;;8.40;80.80;;;;;;5012202;28;20826;-77
2021/11/08 01:50:38;;;;;;;39.75;10.50;;;8.40;81.10;;;;;;5011762;28;20884;-78
2021/11/08 01:53:05;;;;;;;41.17;10.90;;;8.40;82.60;;;;;;5010910;28;20415;-78
2021/11/08 01:55:32;;;;;;;42.78;10.07;;;8.30;84.60;;;;;;5015645;28;20400;-77
2021/11/08 01:57:58;;;;;;;36.78;9.98;;;8.30;84.90;;;;;;5016585;28;20739;-77
2021/11/08 02:00:26;;;;;;;29.85;9.27;;;8.50;79.70;;;;;;5017651;28;20392;-78
2021/11/08 02:02:52;;;;;;;32.80;9.40;;;8.40;79.50;;;;;;5013407;28;20393;-78
2021/11/08 02:05:18;;;;;;;32.35;9.60;;;8.30;79.90;;;;;;5014773;28;20442;-77
2021/11/08 02:07:44;;;;;;;31.77;9.87;;;8.10;80.60;;;;;;5014614;28;20855;-78
2021/11/08 02:10:12;;;;;;;28.13;9.45;;;8.00;83.40;;;;;;5014609;28;20476;-77
2021/11/08 02:12:39;;;;;;;34.13;9.73;;;7.80;86.20;;;;;;5013967;28;20502;-79
2021/11/08 02:15:07;;;;;;;27.38;9.35;;;7.70;88.90;;;;;;5018146;28;20423;-79
2021/11/08 02:17:33;;;;;;;43.97;11.10;;;7.50;91.80;;;;;;5013488;28;20825;-79
2021/11/08 02:20:17;;;;;;;33.17;9.93;;;7.60;94.80;;;;;;5014364;28;20405;-79
2021/11/08 02:22:44;;;;;;;31.92;10.00;;;7.70;96.00;;;;;;4993402;28;20394;-79
2021/11/08 02:25:11;;;;;;;39.15;10.02;;;7.80;96.10;;;;;;4996084;28;20722;-78
2021/11/08 02:27:40;;;;;;;26.55;9.60;;;7.90;95.20;;;;;;5013626;28;20882;-78
2021/11/08 02:30:06;;;;;;;35.17;9.20;;;8.00;91.90;;;;;;5011904;28;20451;-77
2021/11/08 02:32:33;;;;;;;35.85;10.57;;;8.00;90.50;;;;;;5013640;28;20424;-78
2021/11/08 02:35:02;;;;;;;32.65;10.45;;;8.00;90.10;;;;;;5013986;28;20392;-78
2021/11/08 02:37:28;;;;;;;36.33;8.95;;;8.10;90.60;;;;;;5013825;28;20928;-79
2021/11/08 02:39:55;;;;;;;32.17;9.20;;;8.30;90.00;;;;;;5013627;28;20397;-78
2021/11/08 02:42:21;;;;;;;32.10;8.95;;;8.30;85.00;;;;;;5012186;28;20404;-78
2021/11/08 02:44:46;;;;;;;30.83;9.23;;;8.30;83.80;;;;;;5015919;28;20439;-78
2021/11/08 02:47:14;;;;;;;28.75;8.82;;;8.30;84.00;;;;;;5020910;28;20404;-78
2021/11/08 02:49:43;;;;;;;37.03;9.50;;;8.30;83.60;;;;;;5020651;28;20758;-77
2021/11/08 02:52:10;;;;;;;35.65;9.20;;;8.30;84.00;;;;;;5013653;28;20396;-78
2021/11/08 02:54:41;;;;;;;29.88;9.57;;;8.30;84.40;;;;;;5014429;28;20404;-79
2021/11/08 02:57:08;;;;;;;31.45;9.40;;;8.40;84.80;;;;;;5015075;28;20417;-78
2021/11/08 02:59:37;;;;;;;33.00;8.73;;;8.40;84.90;;;;;;5020770;28;20536;-78
2021/11/08 03:02:03;;;;;;;33.67;8.60;;;8.40;83.50;;;;;;5023275;28;20389;-77
2021/11/08 03:04:33;;;;;;;30.55;8.75;;;8.50;80.60;;;;;;5021694;28;20818;-79
2021/11/08 03:07:00;;;;;;;35.28;9.90;;;8.40;80.80;;;;;;5016623;28;20386;-78
2021/11/08 03:09:33;;;;;;;29.75;9.55;;;8.50;81.20;;;;;;5013873;28;20816;-78
2021/11/08 03:12:06;;;;;;;33.50;9.52;;;8.40;80.30;;;;;;5016432;28;20392;-78
2021/11/08 03:14:34;;;;;;;30.02;9.10;;;8.40;80.90;;;;;;5033150;28;20474;-78
2021/11/08 03:17:01;;;;;;;33.40;8.65;;;8.50;81.00;;;;;;5035865;22;20525;-75
2021/11/08 03:19:38;;;;;;;41.88;9.32;;;8.50;81.10;;;;;;4993650;28;20390;-75
2021/11/08 03:22:14;;;;;;;43.40;10.43;;;8.60;78.40;;;;;;4993132;28;20445;-76
2021/11/08 03:30:19;;;;;;;30.77;8.27;;;8.50;79.70;;;;;;4981162;28;20402;-75
2021/11/08 03:32:47;;;;;;;33.47;8.65;;;8.50;80.10;;;;;;4973600;28;20765;-76
2021/11/08 03:35:14;;;;;;;35.53;8.80;;;8.50;79.30;;;;;;4988356;28;20400;-76
2021/11/08 03:37:42;;;;;;;31.77;8.95;;;8.60;77.70;;;;;;4973421;28;20415;-76
2021/11/08 03:40:17;;;;;;;38.13;8.65;;;8.60;78.10;;;;;;4974879;28;20404;-75
2021/11/08 03:42:42;;;;;;;33.77;8.47;;;8.70;75.20;;;;;;4973209;28;20400;-75
2021/11/08 03:45:09;;;;;;;39.87;9.63;;;8.60;76.00;;;;;;4973880;28;20738;-75
2021/11/08 03:47:36;;;;;;;34.00;8.93;;;8.60;76.70;;;;;;4973363;28;20523;-75
2021/11/08 03:50:03;;;;;;;38.85;8.38;;;8.70;76.60;;;;;;4988240;28;20410;-74
2021/11/08 03:52:29;;;;;;;38.50;9.65;;;8.60;76.90;;;;;;4993283;28;20426;-75
2021/11/08 03:54:55;;;;;;;28.58;7.80;;;8.60;77.10;;;;;;4992493;28;20402;-75
2021/11/08 03:57:21;;;;;;;32.38;8.30;;;8.60;77.40;;;;;;4974777;28;20528;-75
2021/11/08 03:59:47;;;;;;;31.05;8.02;;;8.60;76.80;;;;;;4993079;28;20403;-75
2021/11/08 04:02:12;;;;;;;39.50;9.30;;;8.70;75.50;;;;;;4992677;28;20457;-76
2021/11/08 04:04:39;;;;;;;32.40;8.50;;;8.80;75.40;;;;;;4991684;28;20414;-76
2021/11/08 04:07:04;;;;;;;32.35;9.00;;;8.70;74.50;;;;;;4974579;28;20746;-75
2021/11/08 04:09:30;;;;;;;35.60;8.30;;;8.70;74.90;;;;;;4977868;28;20388;-75
2021/11/08 04:11:55;;;;;;;34.40;8.80;;;8.70;75.80;;;;;;4990567;28;20417;-75
2021/11/08 04:14:24;;;;;;;32.80;8.90;;;8.70;74.70;;;;;;5007651;28;20390;-75
2021/11/08 04:16:50;;;;;;;45.97;9.60;;;8.70;74.80;;;;;;4997782;28;20552;-76
2021/11/08 04:19:15;;;;;;;43.13;10.27;;;8.70;75.60;;;;;;4989757;28;20524;-76
2021/11/08 04:21:42;;;;;;;31.30;8.97;;;8.70;75.00;;;;;;4973142;28;20481;-76
2021/11/08 04:24:08;;;;;;;34.90;8.75;;;8.70;75.70;;;;;;4972352;28;20396;-76
2021/11/08 04:26:35;;;;;;;38.55;9.90;;;8.70;76.50;;;;;;5014007;28;20387;-76
2021/11/08 04:29:03;;;;;;;35.35;9.48;;;8.70;76.40;;;;;;5009414;28;20482;-76
2021/11/08 04:31:33;;;;;;;32.03;8.68;;;8.70;76.70;;;;;;4991482;28;20398;-76
2021/11/08 04:34:21;;;;;;;31.63;8.50;;;8.70;76.70;;;;;;4992379;28;20487;-76
2021/11/08 04:37:08;;;;;;;39.78;9.45;;;8.70;76.40;;;;;;4990815;28;20470;-76
2021/11/08 04:42:11;;;;;;;35.17;8.57;;;8.80;74.00;;;;;;4973213;28;20848;-75
2021/11/08 04:55:28;;;;;;;29.13;8.70;;;8.60;73.40;;;;;;4990800;28;20406;-75
2021/11/08 05:22:35;;;;;;;40.50;9.45;;;8.30;78.80;;;;;;4972166;28;20949;-77
2021/11/08 05:30:14;;;;;;;37.73;9.47;;;8.50;76.40;;;;;;4997544;28;20420;-74
2021/11/08 05:32:46;;;;;;;40.38;9.82;;;8.50;77.80;;;;;;4977182;28;20904;-75
2021/11/08 05:35:13;;;;;;;36.33;8.97;;;8.60;76.40;;;;;;4976667;28;20808;-76
2021/11/08 05:37:43;;;;;;;32.77;9.57;;;8.60;73.80;;;;;;4976521;28;20416;-76
2021/11/08 05:40:14;;;;;;;26.77;8.38;;;8.60;73.60;;;;;;4979496;28;20477;-75
2021/11/08 05:42:40;;;;;;;47.67;10.70;;;8.50;76.20;;;;;;4988251;28;20470;-75
2021/11/08 05:45:09;;;;;;;34.55;8.88;;;8.40;75.30;;;;;;4976579;28;20852;-75
2021/11/08 05:47:35;;;;;;;36.75;8.43;;;8.40;76.40;;;;;;4977052;28;20705;-76
2021/11/08 05:50:02;;;;;;;38.20;8.90;;;8.50;77.50;;;;;;4980133;28;20856;-74
2021/11/08 05:52:28;;;;;;;37.13;9.98;;;8.50;73.90;;;;;;4995483;28;20922;-75
2021/11/08 05:54:54;;;;;;;37.27;10.97;;;8.30;76.10;;;;;;4997333;28;20402;-76
2021/11/08 06:49:14;;;;;;;34.55;10.32;;;7.10;99.90;;;;;;4995410;28;20400;-76
2021/11/08 06:51:40;;;;;;;42.97;11.20;;;7.20;98.60;;;;;;4988824;28;20805;-76
2021/11/08 06:54:07;;;;;;;35.50;11.20;;;7.10;99.30;;;;;;4996229;28;20485;-76
2021/11/08 06:56:37;;;;;;;40.85;11.00;;;7.00;99.90;;;;;;4993748;28;20551;-75
2021/11/08 06:59:04;;;;;;;44.67;11.05;;;7.10;99.90;;;;;;4996271;28;20394;-76
2021/11/08 07:01:33;;;;;;;42.28;11.98;;;7.10;99.90;;;;;;4995051;28;20414;-77
2021/11/08 07:03:59;;;;;;;40.75;11.35;;;7.10;99.90;;;;;;4995588;28;20391;-76
2021/11/08 07:06:25;;;;;;;38.13;10.80;;;7.00;99.90;;;;;;4998627;28;20913;-76
2021/11/08 07:08:50;;;;;;;43.17;11.77;;;7.00;99.90;;;;;;5003633;28;20399;-76
2021/11/08 07:11:16;;;;;;;42.10;10.70;;;7.10;99.90;;;;;;5003489;28;20852;-76
2021/11/08 07:13:43;;;;;;;39.67;13.43;;;7.20;99.90;;;;;;5008178;28;20484;-76
2021/11/08 07:16:08;;;;;;;42.20;11.77;;;7.20;99.90;;;;;;4988964;28;20478;-73
2021/11/08 07:18:34;;;;;;;41.17;12.57;;;7.10;99.90;;;;;;5005296;28;20476;-72
2021/11/08 07:21:00;;;;;;;46.17;13.63;;;7.10;99.90;;;;;;4997316;28;20411;-72
2021/11/08 07:23:25;;;;;;;41.17;11.85;;;7.10;99.90;;;;;;4983742;28;20391;-73
2021/11/08 07:25:51;;;;;;;40.87;11.57;;;7.40;99.90;;;;;;5005057;28;20882;-74
2021/11/08 07:28:17;;;;;;;39.97;11.20;;;7.30;99.90;;;;;;5015482;28;20470;-73
2021/11/08 07:30:46;;;;;;;35.87;12.80;;;7.40;99.90;;;;;;4998981;28;20399;-73
2021/11/08 07:33:11;;;;;;;47.00;14.00;;;7.50;99.90;;;;;;5007528;28;20460;-73
2021/11/08 07:35:37;;;;;;;49.13;13.00;;;7.60;99.90;;;;;;5009185;28;20807;-75
2021/11/08 07:38:03;;;;;;;40.45;12.38;;;7.80;99.90;;;;;;5006229;28;20801;-73
2021/11/08 07:40:29;;;;;;;53.20;12.27;;;7.90;99.90;;;;;;4988464;28;20406;-75
2021/11/08 07:42:55;;;;;;;48.25;12.57;;;8.00;99.90;;;;;;4996903;28;20410;-73
2021/11/08 07:45:21;;;;;;;42.83;12.45;;;8.10;99.90;;;;;;4997258;28;20397;-73
2021/11/08 07:47:47;;;;;;;44.33;12.97;;;8.20;98.70;;;;;;4995486;28;20390;-74
2021/11/08 07:50:12;;;;;;;42.58;13.63;;;8.40;96.30;;;;;;4990240;28;20402;-74
2021/11/08 07:52:38;;;;;;;45.47;14.50;;;8.50;95.30;;;;;;4999384;28;20511;-75
2021/11/08 07:55:05;;;;;;;42.13;12.73;;;8.70;90.80;;;;;;4990956;28;20823;-79
2021/11/08 07:57:30;;;;;;;40.65;13.68;;;8.90;86.40;;;;;;4996441;28;20418;-75
2021/11/08 07:59:56;;;;;;;41.88;13.13;;;9.10;81.40;;;;;;4991363;28;20412;-76
2021/11/08 08:02:22;;;;;;;49.92;13.43;;;9.20;78.50;;;;;;4986513;28;20398;-76
2021/11/08 08:04:48;;;;;;;40.65;12.65;;;9.30;78.70;;;;;;4990894;28;20401;-73
2021/11/08 08:07:14;;;;;;;43.35;12.00;;;9.50;72.10;;;;;;4994948;28;20749;-77
2021/11/08 08:09:40;;;;;;;48.70;13.95;;;9.50;68.20;;;;;;4993093;28;20776;-73
2021/11/08 08:12:07;;;;;;;55.65;13.60;;;9.60;68.00;;;;;;4997902;28;20405;-72
2021/11/08 08:14:33;;;;;;;37.70;12.07;;;9.60;67.30;;;;;;4992442;28;20430;-73
2021/11/08 08:17:03;;;;;;;34.35;11.32;;;9.60;66.50;;;;;;4997876;28;20462;-74
2021/11/08 08:19:31;;;;;;;43.88;12.68;;;9.70;65.00;;;;;;4986134;28;20404;-76
2021/11/08 08:21:57;;;;;;;49.58;13.32;;;9.80;64.70;;;;;;4978936;28;20751;-76
2021/11/08 08:24:22;;;;;;;43.50;11.75;;;9.90;63.20;;;;;;5010215;28;20480;-73
2021/11/08 08:26:48;;;;;;;41.95;11.80;;;9.90;61.30;;;;;;4998511;28;20741;-74
2021/11/08 08:29:14;;;;;;;41.72;12.02;;;9.90;59.40;;;;;;4990718;28;20441;-82
2021/11/08 08:31:44;;;;;;;40.85;13.13;;;10.00;59.90;;;;;;5001763;28;20384;-72
2021/11/08 08:34:11;;;;;;;54.67;12.43;;;10.10;58.90;;;;;;5012305;28;20380;-72
2021/11/08 08:36:38;;;;;;;46.70;11.52;;;10.10;57.60;;;;;;5011708;28;20966;-73
2021/11/08 08:39:07;;;;;;;44.05;12.10;;;10.10;56.70;;;;;;5001222;28;20907;-72
2021/11/08 08:41:34;;;;;;;44.78;11.60;;;10.20;56.10;;;;;;4991849;28;20452;-72
2021/11/08 08:44:00;;;;;;;50.63;11.88;;;10.30;55.70;;;;;;4992361;28;20760;-72
2021/11/08 08:46:26;;;;;;;48.70;13.03;;;10.30;55.40;;;;;;4992415;28;20378;-73
2021/11/08 08:48:53;;;;;;;47.10;12.32;;;10.40;55.10;;;;;;4992561;28;20387;-72
2021/11/08 08:51:19;;;;;;;44.13;11.00;;;10.50;53.30;;;;;;5003728;28;20385;-72
2021/11/08 08:53:45;;;;;;;40.67;12.18;;;10.50;54.70;;;;;;5012168;28;20419;-72
2021/11/08 08:56:12;;;;;;;52.25;12.02;;;10.60;53.00;;;;;;5012143;28;20393;-72
2021/11/08 08:58:38;;;;;;;38.05;11.27;;;10.70;52.50;;;;;;4999896;28;20412;-74
2021/11/08 09:01:04;;;;;;;41.50;12.38;;;10.90;51.10;;;;;;4974043;28;20476;-72
2021/11/08 09:03:30;;;;;;;39.27;10.70;;;11.10;47.80;;;;;;4973936;28;20852;-73
2021/11/08 09:05:56;;;;;;;42.15;12.57;;;11.00;47.50;;;;;;4992097;28;20394;-72
2021/11/08 09:08:22;;;;;;;41.25;13.77;;;11.10;48.00;;;;;;4991943;28;20887;-72
2021/11/08 09:10:48;;;;;;;38.88;10.85;;;11.20;46.50;;;;;;4997529;28;20402;-74
2021/11/08 09:13:15;;;;;;;38.22;10.20;;;11.30;45.10;;;;;;4995923;28;20414;-72
2021/11/08 09:15:41;;;;;;;53.30;11.80;;;11.50;44.50;;;;;;4992308;28;20405;-73
2021/11/08 09:18:08;;;;;;;37.40;10.40;;;11.50;45.40;;;;;;5026185;23;20435;-77
2021/11/08 09:20:35;;;;;;;38.60;11.07;;;11.50;44.80;;;;;;5030238;28;20389;-76
2021/11/08 09:23:03;;;;;;;34.55;11.40;;;11.60;46.00;;;;;;5029582;28;20449;-76
2021/11/08 09:25:28;;;;;;;48.97;12.30;;;11.70;43.70;;;;;;5033017;28;20390;-77
2021/11/08 09:27:57;;;;;;;37.65;10.73;;;11.90;42.80;;;;;;5050121;28;20393;-77
2021/11/08 09:30:28;;;;;;;39.40;11.40;;;11.80;41.90;;;;;;5040976;28;20414;-76
2021/11/08 09:32:54;;;;;;;45.33;11.60;;;11.70;43.50;;;;;;5029987;28;20412;-77
2021/11/08 09:35:20;;;;;;;38.05;11.30;;;11.70;43.70;;;;;;5038130;28;20960;-76
2021/11/08 09:37:48;;;;;;;45.23;11.80;;;11.80;42.30;;;;;;5030224;28;20418;-76
2021/11/08 09:40:18;;;;;;;37.28;10.63;;;11.80;41.80;;;;;;5030409;28;20386;-76
2021/11/08 09:42:45;;;;;;;50.10;10.80;;;11.90;41.00;;;;;;5029642;28;20383;-75
2021/11/08 09:45:12;;;;;;;41.83;11.70;;;12.00;40.60;;;;;;5037604;28;20912;-75
2021/11/08 09:47:38;;;;;;;42.22;10.68;;;12.10;42.00;;;;;;5029741;28;20455;-76
2021/11/08 09:50:08;;;;;;;31.63;10.18;;;12.10;42.00;;;;;;5017941;28;20392;-77
2021/11/08 09:52:41;;;;;;;43.35;11.82;;;12.10;41.30;;;;;;5012361;28;20403;-78
2021/11/08 09:55:12;;;;;;;36.80;10.80;;;12.10;41.30;;;;;;5032738;28;20834;-75
2021/11/08 09:57:39;;;;;;;44.67;12.73;;;12.20;41.60;;;;;;5030937;28;20795;-76
2021/11/08 10:00:16;;;;;;;41.83;10.80;;;12.30;41.00;;;;;;5050791;28;20410;-76
2021/11/08 10:02:52;;;;;;;34.08;10.63;;;12.40;40.50;;;;;;5049020;28;20386;-76
2021/11/08 10:05:18;;;;;;;42.33;10.57;;;12.50;40.20;;;;;;5010843;28;20395;-76
2021/11/08 10:07:44;;;;;;;42.00;10.90;;;12.80;37.80;;;;;;5012161;28;20805;-76
2021/11/08 10:10:10;;;;;;;35.07;9.83;;;12.80;38.60;;;;;;5027013;28;20390;-78
2021/11/08 10:12:35;;;;;;;28.63;8.67;;;12.80;38.20;;;;;;5044067;28;20794;-77
2021/11/08 10:15:01;;;;;;;38.60;10.80;;;13.10;36.00;;;;;;5041099;28;20404;-76
2021/11/08 10:17:28;;;;;;;40.50;10.53;;;13.10;36.60;;;;;;5033604;28;20407;-76
2021/11/08 10:19:54;;;;;;;38.00;11.18;;;13.30;36.10;;;;;;5033401;28;20382;-77
2021/11/08 10:22:21;;;;;;;29.48;9.40;;;13.30;36.40;;;;;;5032989;28;20392;-77
2021/11/08 10:24:49;;;;;;;46.85;11.30;;;13.40;35.50;;;;;;5033164;28;20391;-76
2021/11/08 10:27:17;;;;;;;39.38;10.13;;;13.50;35.20;;;;;;5050504;28;20799;-77
2021/11/08 10:29:47;;;;;;;39.08;9.80;;;13.40;35.70;;;;;;5041631;28;20747;-76
2021/11/08 10:32:14;;;;;;;37.30;9.75;;;13.30;35.40;;;;;;5031724;28;20469;-76
2021/11/08 10:34:50;;;;;;;31.48;8.80;;;13.10;36.50;;;;;;5039349;28;20825;-77
2021/11/08 10:37:23;;;;;;;32.22;8.93;;;12.90;36.60;;;;;;5012291;28;20408;-77
2021/11/08 10:39:49;;;;;;;38.28;8.70;;;12.70;37.20;;;;;;5013693;28;20396;-76
2021/11/08 10:42:21;;;;;;;32.90;9.07;;;12.40;38.10;;;;;;5013176;28;21075;-76
2021/11/08 10:44:47;;;;;;;30.50;8.88;;;12.10;39.20;;;;;;5031063;28;20391;-76
2021/11/08 10:47:13;;;;;;;41.08;8.95;;;12.00;39.90;;;;;;5032186;28;20953;-77
2021/11/08 10:49:42;;;;;;;30.70;9.68;;;11.90;40.70;;;;;;5033099;28;20709;-77
2021/11/08 10:52:14;;;;;;;43.35;9.60;;;11.80;41.60;;;;;;5032715;28;20458;-77
2021/11/08 10:54:43;;;;;;;38.35;10.30;;;11.90;42.00;;;;;;5032907;28;20394;-76
2021/11/08 10:57:12;;;;;;;31.98;10.30;;;12.00;40.70;;;;;;5037203;28;20443;-80
2021/11/08 10:59:43;;;;;;;37.92;9.95;;;12.00;39.80;;;;;;5040789;28;20392;-80
2021/11/08 11:02:12;;;;;;;50.07;10.30;;;12.00;40.20;;;;;;5037679;28;20395;-79
2021/11/08 11:04:49;;;;;;;36.92;9.75;;;12.00;40.80;;;;;;5046234;28;20478;-78
2021/11/08 11:07:20;;;;;;;31.98;8.90;;;12.00;40.00;;;;;;5050242;28;20414;-79
2021/11/08 11:09:46;;;;;;;43.65;11.05;;;12.00;39.90;;;;;;5049207;28;20395;-78
2021/11/08 11:12:11;;;;;;;25.13;9.03;;;11.90;40.70;;;;;;5034518;28;20881;-78
2021/11/08 11:14:41;;;;;;;33.25;9.20;;;11.90;41.70;;;;;;5044303;28;20387;-79
2021/11/08 11:17:13;;;;;;;35.47;9.50;;;12.40;40.10;;;;;;5041741;28;20482;-79
2021/11/08 11:19:39;;;;;;;36.10;9.20;;;12.70;38.10;;;;;;5036072;28;20403;-79
2021/11/08 11:22:09;;;;;;;33.85;9.27;;;12.90;38.00;;;;;;5042051;28;20406;-79
2021/11/08 11:24:46;;;;;;;33.20;9.43;;;13.10;36.00;;;;;;5044112;28;20395;-79
2021/11/08 11:27:28;;;;;;;37.97;9.85;;;13.30;35.50;;;;;;5042605;28;20587;-80
2021/11/08 11:30:26;;;;;;;35.38;9.25;;;13.50;35.90;;;;;;5032057;28;20413;-79
2021/11/08 11:33:01;;;;;;;35.38;8.77;;;13.60;34.30;;;;;;5042348;28;20414;-79
2021/11/08 11:35:37;;;;;;;32.92;8.63;;;13.70;33.60;;;;;;5049196;28;20485;-80
2021/11/08 11:38:07;;;;;;;41.55;9.75;;;13.60;33.00;;;;;;5040133;28;20402;-78
2021/11/08 11:40:40;;;;;;;28.58;8.20;;;13.60;32.90;;;;;;5050528;28;20443;-79
2021/11/08 11:43:08;;;;;;;34.70;8.60;;;13.50;33.20;;;;;;5049881;28;20406;-78
2021/11/08 11:46:06;;;;;;;29.77;8.30;;;13.60;33.30;;;;;;5046248;28;20391;-79
2021/11/08 11:48:34;;;;;;;33.70;8.73;;;13.50;32.70;;;;;;5051607;28;20402;-78
2021/11/08 11:51:00;;;;;;;30.60;7.80;;;13.40;33.60;;;;;;5048898;28;20406;-78
2021/11/08 11:53:27;;;;;;;27.98;8.27;;;13.40;33.70;;;;;;5040271;28;20395;-78
2021/11/08 11:55:54;;;;;;;33.33;8.55;;;13.40;33.60;;;;;;5020117;28;20399;-79
2021/11/08 11:58:20;;;;;;;36.08;8.80;;;13.50;33.20;;;;;;5030111;28;20464;-79
2021/11/08 12:00:49;;;;;;;36.17;8.63;;;13.50;33.70;;;;;;5043009;28;20397;-79
2021/11/08 12:03:15;;;;;;;24.48;7.78;;;13.80;32.60;;;;;;5031033;28;20849;-78
2021/11/08 12:05:44;;;;;;;28.58;7.60;;;13.50;32.20;;;;;;5044456;28;20428;-80
2021/11/08 12:08:12;;;;;;;35.05;7.90;;;13.40;33.40;;;;;;5029962;28;20404;-80
2021/11/08 12:10:50;;;;;;;28.27;9.27;;;13.10;34.10;;;;;;5038472;28;20408;-79
2021/11/08 12:13:22;;;;;;;28.95;7.50;;;13.10;34.00;;;;;;5018258;28;20539;-77
2021/11/08 12:15:49;;;;;;;32.25;7.70;;;13.10;34.90;;;;;;5025574;28;20422;-80
2021/11/08 12:18:16;;;;;;;34.72;7.55;;;13.00;34.70;;;;;;5029574;28;20882;-78
2021/11/08 12:20:48;;;;;;;32.88;7.63;;;13.00;34.60;;;;;;5034551;28;20883;-81
2021/11/08 12:23:27;;;;;;;29.92;7.45;;;13.00;34.50;;;;;;5023857;28;20480;-79
2021/11/08 12:25:54;;;;;;;35.53;7.88;;;13.00;34.90;;;;;;5052363;28;20450;-76
2021/11/08 12:28:25;;;;;;;31.52;8.50;;;12.90;35.40;;;;;;5050630;28;20406;-79
2021/11/08 12:30:58;;;;;;;28.67;7.68;;;13.10;35.30;;;;;;5044944;28;20401;-79
2021/11/08 12:33:37;;;;;;;38.97;8.80;;;13.20;34.00;;;;;;5038173;28;20436;-78
2021/11/08 12:36:06;;;;;;;39.28;7.97;;;13.20;34.10;;;;;;5040695;28;20399;-75
2021/11/08 12:38:41;;;;;;;35.10;8.75;;;13.20;34.00;;;;;;5037393;28;20406;-75
2021/11/08 12:41:08;;;;;;;38.25;9.00;;;13.10;34.10;;;;;;5042719;28;20398;-77
2021/11/08 12:43:37;;;;;;;27.25;8.10;;;13.10;34.30;;;;;;5048082;28;20408;-80
2021/11/08 12:46:18;;;;;;;34.78;8.10;;;13.10;34.30;;;;;;5047725;28;20481;-77
2021/11/08 12:48:45;;;;;;;26.98;7.85;;;13.20;34.50;;;;;;5040687;28;20410;-77
2021/11/08 12:51:13;;;;;;;30.60;7.10;;;13.20;33.50;;;;;;5041455;28;20448;-77
2021/11/08 12:53:42;;;;;;;26.47;7.37;;;13.30;33.40;;;;;;5038442;28;20406;-78
2021/11/08 12:56:30;;;;;;;27.73;7.70;;;13.20;33.30;;;;;;5049916;28;20453;-78
2021/11/08 12:58:58;;;;;;;35.58;9.73;;;13.10;34.10;;;;;;5037251;28;20485;-77
2021/11/08 13:01:40;;;;;;;34.60;9.57;;;13.10;34.70;;;;;;5038284;28;20921;-81
2021/11/08 13:04:08;;;;;;;39.33;9.33;;;13.10;34.40;;;;;;5045805;28;20451;-81
2021/11/08 13:06:35;;;;;;;26.17;7.68;;;13.10;34.80;;;;;;5036750;28;20427;-77
2021/11/08 13:09:09;;;;;;;35.13;7.30;;;13.20;34.20;;;;;;5044006;28;20406;-79
2021/11/08 13:11:56;;;;;;;29.90;7.85;;;13.20;33.60;;;;;;5062065;28;20393;-78
2021/11/08 13:14:34;;;;;;;47.20;8.52;;;13.20;34.10;;;;;;5029324;28;20403;-78
2021/11/08 13:17:12;;;;;;;30.25;7.60;;;13.20;33.50;;;;;;5035412;28;20391;-78
2021/11/08 13:19:49;;;;;;;28.87;7.30;;;13.00;33.30;;;;;;5043324;28;20406;-79
2021/11/08 13:22:26;;;;;;;34.50;7.70;;;13.10;33.70;;;;;;5036525;28;20389;-79
2021/11/08 13:25:08;;;;;;;29.03;7.07;;;12.80;34.20;;;;;;5040844;28;20387;-78
2021/11/08 13:27:35;;;;;;;30.55;7.00;;;12.80;34.60;;;;;;5018809;28;20392;-81
2021/11/08 13:30:05;;;;;;;33.47;7.60;;;12.60;35.00;;;;;;5020640;28;20407;-78
2021/11/08 13:32:31;;;;;;;29.98;7.60;;;12.60;35.10;;;;;;5017300;28;20399;-80
2021/11/08 13:35:11;;;;;;;27.00;7.10;;;12.80;35.00;;;;;;5033790;28;20466;-78
2021/11/08 13:37:42;;;;;;;28.63;7.80;;;12.90;34.00;;;;;;5038632;28;20410;-80
2021/11/08 13:40:22;;;;;;;39.10;7.60;;;12.80;34.40;;;;;;5018176;28;20747;-80
2021/11/08 13:42:51;;;;;;;38.28;7.30;;;12.70;34.50;;;;;;5025038;28;20402;-79
2021/11/08 13:45:19;;;;;;;27.88;6.70;;;12.70;35.00;;;;;;5041647;28;20977;-79
2021/11/08 13:47:48;;;;;;;26.67;7.15;;;12.70;34.70;;;;;;5040400;28;20887;-80
2021/11/08 13:50:17;;;;;;;26.05;6.80;;;12.70;34.30;;;;;;5044843;28;20420;-82
2021/11/08 13:52:44;;;;;;;32.63;7.23;;;12.70;34.40;;;;;;5045335;28;20387;-80
2021/11/08 13:55:12;;;;;;;26.40;6.18;;;12.60;34.70;;;;;;5036149;28;20432;-80
2021/11/08 13:57:43;;;;;;;29.70;7.57;;;12.70;34.50;;;;;;5037782;28;20494;-80
2021/11/08 14:00:17;;;;;;;30.25;6.30;;;12.60;34.90;;;;;;5035144;28;20494;-80
2021/11/08 14:02:43;;;;;;;29.02;6.18;;;12.50;35.20;;;;;;5039229;28;20759;-80
2021/11/08 14:05:11;;;;;;;33.80;6.90;;;12.50;35.10;;;;;;5039734;28;20949;-80
2021/11/08 14:07:37;;;;;;;27.58;6.68;;;12.60;34.90;;;;;;5039531;28;20394;-79
2021/11/08 14:10:07;;;;;;;27.35;6.47;;;12.50;35.20;;;;;;5047054;28;20385;-79
2021/11/08 14:12:33;;;;;;;22.67;6.40;;;12.50;34.70;;;;;;5049384;28;20395;-80
2021/11/08 14:15:00;;;;;;;26.97;7.40;;;12.50;35.00;;;;;;5043119;28;20402;-78
2021/11/08 14:17:30;;;;;;;24.02;6.10;;;12.40;35.20;;;;;;5038688;28;20442;-81
2021/11/08 14:19:59;;;;;;;29.97;7.20;;;12.40;35.30;;;;;;5038372;28;20413;-79
2021/11/08 14:22:28;;;;;;;24.65;6.40;;;12.40;35.00;;;;;;5034845;28;20391;-78
2021/11/08 14:24:58;;;;;;;29.30;7.90;;;12.40;35.60;;;;;;5040790;28;20380;-79
2021/11/08 14:27:29;;;;;;;26.33;7.60;;;12.30;35.80;;;;;;5041656;28;20413;-79
2021/11/08 14:29:56;;;;;;;27.55;7.78;;;12.30;36.10;;;;;;5044328;28;20600;-80
2021/11/08 14:32:29;;;;;;;30.55;7.03;;;12.30;36.10;;;;;;5042876;28;20403;-79